createdAt,value
2018-11-05T00:00:31.516Z,63.40
2018-11-05T00:02:59.375Z,62.90
2018-11-05T00:05:27.990Z,63.00
2018-11-05T00:07:55.754Z,63.70
2018-11-05T00:10:23.496Z,63.50
2018-11-05T00:12:51.354Z,63.60
2018-11-05T00:15:19.137Z,63.40
2018-11-05T00:17:46.858Z,63.40
2018-11-05T00:20:15.239Z,63.40
2018-11-05T00:22:43.337Z,62.80
2018-11-05T00:25:13.264Z,63.00
2018-11-05T00:27:42.480Z,62.80
2018-11-05T00:30:11.441Z,62.90
2018-11-05T00:32:39.262Z,62.80
2018-11-05T00:35:07.068Z,62.90
2018-11-05T00:37:34.842Z,62.80
2018-11-05T00:40:02.910Z,62.90
2018-11-05T00:42:30.716Z,62.80
2018-11-05T00:44:58.825Z,62.70
2018-11-05T00:47:26.674Z,63.20
2018-11-05T00:49:54.552Z,63.20
2018-11-05T00:52:22.297Z,63.40
2018-11-05T00:54:50.202Z,63.10
2018-11-05T00:57:18.018Z,63.10
2018-11-05T00:59:45.817Z,62.70
2018-11-05T01:02:15.724Z,63.30
2018-11-05T01:04:44.175Z,63.00
2018-11-05T01:07:12.118Z,63.30
2018-11-05T01:09:40.983Z,62.90
2018-11-05T01:12:08.801Z,63.60
2018-11-05T01:14:36.667Z,63.10
2018-11-05T01:17:05.575Z,63.40
2018-11-05T01:19:33.616Z,62.90
2018-11-05T01:22:01.603Z,63.10
2018-11-05T01:24:29.493Z,63.40
2018-11-05T01:26:58.135Z,63.10
2018-11-05T01:29:25.905Z,63.00
2018-11-05T01:31:53.666Z,62.80
2018-11-05T01:34:22.551Z,63.10
2018-11-05T01:36:51.360Z,63.20
2018-11-05T01:39:19.226Z,62.80
2018-11-05T01:41:48.064Z,63.10
2018-11-05T01:44:16.792Z,62.60
2018-11-05T01:46:44.945Z,62.80
2018-11-05T01:49:12.795Z,62.80
2018-11-05T01:51:40.647Z,62.70
2018-11-05T01:54:08.416Z,62.80
2018-11-05T01:56:36.336Z,62.70
2018-11-05T01:59:04.279Z,62.90
2018-11-05T02:01:32.349Z,62.80
2018-11-05T02:04:00.237Z,62.70
2018-11-05T02:06:28.084Z,63.10
2018-11-05T02:08:55.942Z,63.10
2018-11-05T02:11:23.933Z,62.80
2018-11-05T02:13:51.672Z,62.60
2018-11-05T02:16:20.436Z,62.70
2018-11-05T02:18:48.213Z,62.80
2018-11-05T02:21:16.039Z,62.90
2018-11-05T02:23:44.275Z,62.90
2018-11-05T02:26:12.128Z,63.10
2018-11-05T02:28:39.949Z,62.80
2018-11-05T02:31:08.041Z,63.30
2018-11-05T02:33:35.784Z,63.30
2018-11-05T02:36:04.637Z,63.20
2018-11-05T02:38:33.354Z,63.00
2018-11-05T02:41:01.206Z,63.10
2018-11-05T02:43:28.992Z,62.90
2018-11-05T02:45:56.848Z,63.40
2018-11-05T02:48:24.982Z,62.80
2018-11-05T02:50:52.822Z,62.80
2018-11-05T02:53:20.874Z,62.90
2018-11-05T02:55:48.740Z,62.70
2018-11-05T02:58:16.581Z,62.70
2018-11-05T03:00:45.548Z,62.90
2018-11-05T03:03:14.340Z,63.10
2018-11-05T03:05:42.300Z,62.70
2018-11-05T03:08:10.127Z,63.00
2018-11-05T03:10:37.954Z,62.70
2018-11-05T03:13:06.052Z,62.50
2018-11-05T03:15:33.826Z,63.30
2018-11-05T03:18:02.819Z,62.80
2018-11-05T03:20:30.633Z,62.90
2018-11-05T03:22:58.458Z,62.70
2018-11-05T03:25:27.074Z,62.80
2018-11-05T03:27:54.899Z,62.60
2018-11-05T03:30:23.982Z,63.20
2018-11-05T03:32:51.852Z,62.90
2018-11-05T03:35:19.715Z,62.40
2018-11-05T03:37:47.616Z,62.90
2018-11-05T03:40:16.503Z,62.70
2018-11-05T03:42:44.808Z,62.30
2018-11-05T03:45:14.837Z,62.30
2018-11-05T03:47:45.290Z,62.50
2018-11-05T03:50:16.289Z,63.30
2018-11-05T03:52:44.903Z,63.10
2018-11-05T03:55:13.452Z,62.80
2018-11-05T03:57:41.192Z,63.50
2018-11-05T04:00:09.547Z,62.40
2018-11-05T04:02:37.485Z,62.30
2018-11-05T04:05:05.288Z,62.40
2018-11-05T04:07:33.011Z,62.40
2018-11-05T04:10:00.861Z,62.50
2018-11-05T04:12:28.648Z,62.20
2018-11-05T04:14:56.372Z,62.70
2018-11-05T04:17:25.128Z,62.20
2018-11-05T04:19:52.975Z,62.30
2018-11-05T04:22:21.816Z,62.20
2018-11-05T04:24:49.768Z,62.30
2018-11-05T04:27:17.613Z,62.20
2018-11-05T04:29:45.474Z,62.30
2018-11-05T04:32:13.852Z,63.10
2018-11-05T04:34:41.624Z,62.20
2018-11-05T04:37:09.534Z,62.20
2018-11-05T04:39:37.381Z,61.90
2018-11-05T04:42:06.217Z,62.60
2018-11-05T04:44:34.055Z,62.30
2018-11-05T04:47:02.019Z,62.60
2018-11-05T04:49:29.800Z,62.10
2018-11-05T04:51:57.688Z,62.10
2018-11-05T04:54:25.517Z,62.90
2018-11-05T04:56:53.352Z,62.10
2018-11-05T04:59:21.359Z,62.20
2018-11-05T05:01:49.187Z,62.20
2018-11-05T05:04:16.996Z,62.00
2018-11-05T05:06:45.534Z,62.10
2018-11-05T05:09:14.977Z,61.90
2018-11-05T05:11:42.804Z,61.80
2018-11-05T05:14:11.451Z,61.90
2018-11-05T05:16:39.321Z,61.50
2018-11-05T05:19:07.274Z,61.80
2018-11-05T05:21:36.674Z,61.50
2018-11-05T05:24:04.553Z,61.70
2018-11-05T05:26:33.159Z,61.50
2018-11-05T05:29:01.004Z,61.50
2018-11-05T05:31:28.854Z,61.40
2018-11-05T05:33:57.472Z,61.40
2018-11-05T05:36:26.351Z,61.30
2018-11-05T05:38:55.082Z,61.50
2018-11-05T05:41:22.880Z,61.60
2018-11-05T05:43:50.774Z,61.50
2018-11-05T05:46:18.692Z,61.50
2018-11-05T05:48:47.525Z,61.80
2018-11-05T05:51:17.275Z,61.50
2018-11-05T05:53:46.879Z,61.50
2018-11-05T05:56:15.278Z,61.70
2018-11-05T05:58:44.345Z,61.50
2018-11-05T06:01:13.410Z,61.70
2018-11-05T06:03:44.057Z,61.60
2018-11-05T06:06:11.973Z,61.40
2018-11-05T06:08:39.773Z,61.50
2018-11-05T06:11:07.656Z,61.40
2018-11-05T06:13:38.518Z,61.50
2018-11-05T06:16:07.359Z,61.10
2018-11-05T06:18:35.238Z,60.70
2018-11-05T06:21:03.398Z,60.50
2018-11-05T06:23:31.243Z,60.40
2018-11-05T06:25:59.021Z,60.50
2018-11-05T06:28:26.874Z,60.20
2018-11-05T06:30:55.597Z,60.20
2018-11-05T06:33:23.417Z,60.20
2018-11-05T06:35:51.289Z,60.30
2018-11-05T06:38:19.129Z,60.30
2018-11-05T06:40:47.011Z,60.20
2018-11-05T06:43:15.418Z,60.30
2018-11-05T06:45:44.367Z,60.20
2018-11-05T06:48:12.261Z,60.10
2018-11-05T06:50:40.129Z,60.10
2018-11-05T06:53:08.005Z,60.10
2018-11-05T06:55:37.876Z,60.00
2018-11-05T06:58:06.606Z,60.10
2018-11-05T07:00:35.041Z,60.10
2018-11-05T07:03:02.908Z,60.30
2018-11-05T07:05:30.739Z,60.20
2018-11-05T07:07:58.556Z,60.10
2018-11-05T07:10:27.419Z,60.10
2018-11-05T07:12:56.166Z,60.20
2018-11-05T07:15:24.218Z,60.20
2018-11-05T07:17:52.595Z,59.80
2018-11-05T07:20:22.636Z,60.20
2018-11-05T07:22:51.317Z,60.20
2018-11-05T07:25:19.144Z,60.10
2018-11-05T07:27:47.056Z,60.20
2018-11-05T07:30:18.810Z,61.00
2018-11-05T07:32:47.806Z,60.10
2018-11-05T07:35:16.809Z,60.10
2018-11-05T07:37:45.772Z,60.10
2018-11-05T07:40:14.929Z,60.10
2018-11-05T07:42:45.340Z,60.40
2018-11-05T07:45:15.661Z,60.50
2018-11-05T07:47:45.589Z,61.10
2018-11-05T07:50:15.374Z,60.50
2018-11-05T07:52:43.865Z,60.60
2018-11-05T07:55:12.749Z,60.40
2018-11-05T07:57:42.356Z,60.40
2018-11-05T08:00:16.389Z,60.40
2018-11-05T08:02:47.287Z,60.60
2018-11-05T08:05:17.175Z,60.80
2018-11-05T08:07:49.013Z,60.70
2018-11-05T08:10:16.906Z,60.50
2018-11-05T08:12:45.361Z,60.50
2018-11-05T08:15:28.282Z,60.40
2018-11-05T08:17:56.162Z,60.30
2018-11-05T08:20:25.378Z,60.30
2018-11-05T08:22:53.230Z,60.20
2018-11-05T08:25:22.972Z,60.20
2018-11-05T08:27:50.894Z,60.20
2018-11-05T08:30:22.084Z,60.30
2018-11-05T08:32:50.024Z,60.20
2018-11-05T08:35:17.846Z,60.40
2018-11-05T08:37:46.601Z,60.70
2018-11-05T08:40:18.661Z,60.60
2018-11-05T08:42:47.623Z,60.50
2018-11-05T08:45:18.974Z,60.60
2018-11-05T08:47:46.998Z,60.30
2018-11-05T08:50:17.212Z,61.10
2018-11-05T08:52:45.646Z,60.40
2018-11-05T08:55:18.772Z,60.30
2018-11-05T08:57:46.894Z,60.30
2018-11-05T09:00:15.876Z,60.50
2018-11-05T09:02:44.929Z,60.60
2018-11-05T09:05:14.075Z,60.50
2018-11-05T09:07:42.777Z,60.50
2018-11-05T09:10:10.832Z,60.50
2018-11-05T09:12:38.511Z,60.50
2018-11-05T09:15:07.538Z,60.70
2018-11-05T09:17:35.378Z,60.70
2018-11-05T09:20:03.256Z,60.60
2018-11-05T09:22:33.262Z,60.80
2018-11-05T09:25:01.165Z,60.60
2018-11-05T09:27:29.023Z,60.60
2018-11-05T09:29:56.858Z,60.80
2018-11-05T09:32:24.736Z,61.50
2018-11-05T09:34:53.619Z,60.60
2018-11-05T09:37:22.400Z,60.50
2018-11-05T09:39:50.224Z,60.50
2018-11-05T09:42:19.068Z,60.50
2018-11-05T09:44:46.976Z,60.40
2018-11-05T09:47:15.850Z,60.30
2018-11-05T09:49:44.755Z,60.30
2018-11-05T09:52:16.169Z,60.30
2018-11-05T09:54:45.409Z,60.50
2018-11-05T09:57:16.649Z,60.70
2018-11-05T09:59:45.226Z,60.70
2018-11-05T10:02:13.802Z,60.50
2018-11-05T10:04:42.039Z,60.70
2018-11-05T10:07:09.562Z,60.70
2018-11-05T10:09:37.510Z,60.70
2018-11-05T10:12:05.402Z,60.80
2018-11-05T10:14:33.267Z,61.00
2018-11-05T10:17:02.630Z,60.90
2018-11-05T10:19:30.528Z,61.00
2018-11-05T10:21:58.797Z,60.90
2018-11-05T10:24:26.703Z,61.10
2018-11-05T10:26:54.547Z,60.90
2018-11-05T10:29:22.369Z,60.90
2018-11-05T10:31:50.199Z,61.70
2018-11-05T10:34:18.068Z,61.00
2018-11-05T10:36:45.906Z,61.10
2018-11-05T10:39:14.912Z,60.90
2018-11-05T10:41:45.077Z,61.30
2018-11-05T10:44:15.046Z,61.00
2018-11-05T10:46:44.887Z,61.10
2018-11-05T10:49:12.754Z,61.00
2018-11-05T10:51:40.653Z,61.20
2018-11-05T10:54:08.826Z,61.10
2018-11-05T10:56:36.703Z,61.00
2018-11-05T10:59:04.700Z,61.00
2018-11-05T11:01:37.956Z,61.20
2018-11-05T11:04:13.538Z,62.00
2018-11-05T11:06:41.446Z,61.10
2018-11-05T11:09:10.364Z,61.30
2018-11-05T11:11:38.617Z,61.20
2018-11-05T11:14:07.539Z,61.00
2018-11-05T11:16:36.251Z,61.10
2018-11-05T11:19:05.430Z,61.10
2018-11-05T11:21:34.533Z,61.10
2018-11-05T11:24:03.345Z,60.90
2018-11-05T11:26:32.096Z,61.10
2018-11-05T11:29:02.805Z,61.20
2018-11-05T11:31:31.601Z,61.30
2018-11-05T11:34:01.270Z,61.30
2018-11-05T11:36:30.032Z,61.30
2018-11-05T11:38:58.905Z,61.10
2018-11-05T11:41:27.721Z,61.10
2018-11-05T11:43:56.608Z,61.10
2018-11-05T11:46:25.368Z,61.60
2018-11-05T11:48:54.791Z,60.80
2018-11-05T11:51:22.778Z,60.80
2018-11-05T11:53:50.693Z,60.60
2018-11-05T11:56:19.400Z,61.10
2018-11-05T11:58:48.210Z,60.40
2018-11-05T12:01:17.040Z,60.50
2018-11-05T12:03:47.190Z,60.50
2018-11-05T12:06:15.946Z,60.80
2018-11-05T12:08:46.469Z,60.90
2018-11-05T12:11:17.101Z,61.00
2018-11-05T12:13:45.855Z,60.80
2018-11-05T12:16:15.311Z,60.90
2018-11-05T12:18:45.621Z,61.00
2018-11-05T12:21:14.779Z,60.80
2018-11-05T12:23:43.816Z,60.80
2018-11-05T12:26:12.509Z,61.00
2018-11-05T12:28:41.261Z,61.00
2018-11-05T12:31:09.962Z,61.00
2018-11-05T12:33:38.663Z,61.00
2018-11-05T12:36:06.489Z,61.10
2018-11-05T12:38:35.406Z,61.00
2018-11-05T12:41:04.612Z,61.10
2018-11-05T12:43:32.438Z,61.10
2018-11-05T12:46:01.268Z,61.00
2018-11-05T12:48:29.968Z,61.10
2018-11-05T12:50:58.544Z,61.10
2018-11-05T12:53:26.383Z,61.10
2018-11-05T12:55:55.224Z,61.80
2018-11-05T12:58:23.971Z,61.20
2018-11-05T13:00:52.673Z,61.10
2018-11-05T13:03:21.382Z,61.30
2018-11-05T13:05:50.090Z,61.40
2018-11-05T13:08:17.924Z,61.40
2018-11-05T13:10:45.755Z,61.30
2018-11-05T13:13:14.238Z,61.10
2018-11-05T13:15:42.063Z,62.10
2018-11-05T13:18:09.893Z,61.30
2018-11-05T13:20:38.983Z,61.30
2018-11-05T13:23:06.823Z,61.30
2018-11-05T13:25:34.648Z,60.90
2018-11-05T13:28:02.471Z,61.30
2018-11-05T13:30:31.678Z,61.40
2018-11-05T13:32:59.611Z,61.40
2018-11-05T13:35:28.881Z,61.30
2018-11-05T13:37:57.378Z,61.50
2018-11-05T13:40:24.802Z,61.30
2018-11-05T13:42:54.667Z,61.20
2018-11-05T13:45:22.616Z,61.40
2018-11-05T13:47:51.856Z,61.40
2018-11-05T13:50:19.310Z,61.40
2018-11-05T13:52:46.955Z,61.50
2018-11-05T13:55:17.755Z,61.50
2018-11-05T13:57:46.792Z,61.60
2018-11-05T14:00:17.648Z,61.60
2018-11-05T14:02:46.502Z,61.50
2018-11-05T14:05:15.738Z,61.50
2018-11-05T14:07:44.484Z,61.40
2018-11-05T14:10:14.815Z,61.50
2018-11-05T14:12:46.232Z,61.60
2018-11-05T14:15:15.018Z,61.50
2018-11-05T14:17:43.826Z,61.30
2018-11-05T14:20:12.646Z,61.30
2018-11-05T14:22:41.707Z,61.10
2018-11-05T14:25:10.911Z,61.20
2018-11-05T14:27:38.938Z,61.80
2018-11-05T14:30:07.640Z,61.20
2018-11-05T14:32:35.544Z,61.20
2018-11-05T14:35:03.427Z,61.30
2018-11-05T14:37:31.269Z,61.30
2018-11-05T14:40:00.082Z,61.20
2018-11-05T14:42:28.051Z,61.10
2018-11-05T14:44:55.957Z,61.00
2018-11-05T14:47:23.828Z,61.00
2018-11-05T14:49:52.685Z,61.00
2018-11-05T14:52:20.545Z,61.20
2018-11-05T14:54:48.500Z,61.40
2018-11-05T14:57:16.504Z,61.20
2018-11-05T14:59:46.479Z,61.20
2018-11-05T15:02:21.777Z,61.00
2018-11-05T15:04:49.604Z,61.00
2018-11-05T15:07:18.326Z,60.90
2018-11-05T15:09:46.206Z,60.90
2018-11-05T15:12:14.803Z,60.80
2018-11-05T15:14:44.438Z,61.00
2018-11-05T15:17:15.024Z,60.70
2018-11-05T15:19:44.540Z,60.80
2018-11-05T15:22:12.895Z,60.80
2018-11-05T15:24:41.287Z,60.80
2018-11-05T15:27:09.247Z,60.70
2018-11-05T15:29:37.948Z,60.70
2018-11-05T15:32:05.854Z,60.90
2018-11-05T15:34:33.807Z,61.50
2018-11-05T15:37:01.623Z,60.70
2018-11-05T15:39:29.449Z,60.80
2018-11-05T15:41:58.279Z,60.70
2018-11-05T15:44:26.987Z,60.80
2018-11-05T15:46:54.818Z,60.90
2018-11-05T15:49:23.984Z,61.00
2018-11-05T15:51:53.215Z,61.10
2018-11-05T15:54:21.349Z,61.20
2018-11-05T15:56:49.137Z,61.30
2018-11-05T15:59:17.894Z,61.10
2018-11-05T16:01:46.688Z,61.10
2018-11-05T16:04:15.430Z,61.10
2018-11-05T16:06:43.947Z,61.10
2018-11-05T16:09:11.808Z,61.10
2018-11-05T16:11:39.737Z,60.90
2018-11-05T16:14:08.649Z,60.90
2018-11-05T16:16:36.517Z,60.90
2018-11-05T16:19:04.399Z,61.10
2018-11-05T16:21:32.291Z,61.20
2018-11-05T16:24:01.117Z,61.50
2018-11-05T16:26:30.530Z,61.00
2018-11-05T16:28:58.419Z,61.20
2018-11-05T16:31:26.315Z,61.10
2018-11-05T16:33:54.166Z,61.20
2018-11-05T16:36:22.913Z,61.30
2018-11-05T16:38:52.036Z,61.10
2018-11-05T16:41:20.926Z,61.00
2018-11-05T16:43:48.791Z,61.10
2018-11-05T16:46:16.733Z,60.90
2018-11-05T16:48:45.603Z,60.90
2018-11-05T16:51:15.313Z,60.90
2018-11-05T16:53:43.848Z,61.10
2018-11-05T16:56:14.858Z,61.10
2018-11-05T16:58:44.696Z,61.30
2018-11-05T17:01:13.662Z,61.30
2018-11-05T17:03:42.440Z,61.30
2018-11-05T17:06:11.192Z,61.30
2018-11-05T17:08:40.065Z,61.30
2018-11-05T17:11:08.200Z,61.30
2018-11-05T17:13:37.312Z,61.30
2018-11-05T17:16:05.501Z,61.30
2018-11-05T17:18:33.344Z,61.50
2018-11-05T17:21:01.167Z,61.40
2018-11-05T17:23:29.028Z,61.20
2018-11-05T17:25:56.947Z,61.20
2018-11-05T17:28:25.803Z,61.20
2018-11-05T17:30:53.625Z,61.30
2018-11-05T17:33:22.472Z,61.30
2018-11-05T17:35:50.297Z,61.40
2018-11-05T17:38:19.014Z,61.30
2018-11-05T17:40:47.772Z,61.30
2018-11-05T17:43:17.051Z,61.20
2018-11-05T17:45:45.911Z,61.10
2018-11-05T17:48:16.045Z,61.20
2018-11-05T17:50:44.727Z,61.30
2018-11-05T17:53:12.553Z,61.40
2018-11-05T17:55:40.386Z,61.40
2018-11-05T17:58:08.207Z,61.30
2018-11-05T18:00:38.333Z,61.30
2018-11-05T18:03:06.154Z,61.10
2018-11-05T18:05:33.980Z,61.20
2018-11-05T18:08:01.862Z,61.40
2018-11-05T18:10:30.543Z,61.30
2018-11-05T18:12:58.373Z,61.40
2018-11-05T18:15:26.246Z,61.50
2018-11-05T18:17:54.158Z,61.50
2018-11-05T18:20:21.980Z,61.30
2018-11-05T18:22:49.830Z,61.10
2018-11-05T18:25:18.858Z,61.10
2018-11-05T18:27:46.776Z,61.10
2018-11-05T18:30:15.821Z,61.40
2018-11-05T18:32:44.617Z,61.40
2018-11-05T18:35:13.380Z,61.00
2018-11-05T18:37:41.701Z,60.70
2018-11-05T18:40:14.355Z,60.70
2018-11-05T18:42:44.367Z,60.60
2018-11-05T18:45:14.545Z,60.70
2018-11-05T18:47:42.447Z,60.60
2018-11-05T18:50:12.626Z,60.80
2018-11-05T18:52:40.617Z,60.70
2018-11-05T18:55:10.986Z,60.90
2018-11-05T18:57:39.922Z,60.90
2018-11-05T19:00:10.076Z,60.80
2018-11-05T19:02:38.426Z,60.80
2018-11-05T19:05:06.216Z,60.70
2018-11-05T19:07:35.061Z,60.80
2018-11-05T19:10:02.937Z,60.80
2018-11-05T19:12:31.640Z,60.70
2018-11-05T19:15:00.331Z,60.80
2018-11-05T19:17:28.166Z,60.80
2018-11-05T19:19:56.001Z,60.80
2018-11-05T19:22:23.934Z,60.70
2018-11-05T19:24:51.720Z,60.40
2018-11-05T19:27:19.586Z,60.50
2018-11-05T19:29:47.415Z,60.30
2018-11-05T19:32:16.361Z,60.30
2018-11-05T19:34:45.706Z,60.40
2018-11-05T19:37:14.064Z,60.40
2018-11-05T19:39:44.086Z,60.50
2018-11-05T19:42:11.989Z,60.50
2018-11-05T19:44:39.769Z,60.40
2018-11-05T19:47:07.626Z,60.40
2018-11-05T19:49:39.373Z,60.30
2018-11-05T19:52:07.177Z,60.10
2018-11-05T19:54:35.110Z,60.00
2018-11-05T19:57:04.137Z,60.10
2018-11-05T19:59:31.984Z,60.10
2018-11-05T20:02:00.049Z,60.10
2018-11-05T20:04:28.988Z,60.20
2018-11-05T20:06:56.906Z,60.70
2018-11-05T20:09:24.737Z,60.10
2018-11-05T20:11:52.566Z,60.10
2018-11-05T20:14:20.393Z,60.00
2018-11-05T20:16:49.373Z,60.10
2018-11-05T20:19:17.352Z,59.50
2018-11-05T20:21:46.153Z,59.50
2018-11-05T20:24:15.547Z,59.50
2018-11-05T20:26:44.414Z,59.60
2018-11-05T20:29:12.251Z,59.50
2018-11-05T20:31:40.414Z,59.90
2018-11-05T20:34:09.237Z,59.70
2018-11-05T20:36:36.967Z,59.80
2018-11-05T20:39:07.005Z,59.70
2018-11-05T20:41:34.971Z,59.80
2018-11-05T20:44:02.824Z,59.80
2018-11-05T20:46:31.664Z,60.00
2018-11-05T20:49:00.504Z,59.90
2018-11-05T20:51:28.493Z,59.80
2018-11-05T20:53:56.408Z,59.80
2018-11-05T20:56:24.201Z,59.90
2018-11-05T20:58:53.470Z,59.80
2018-11-05T21:01:23.665Z,59.80
2018-11-05T21:03:52.540Z,59.70
2018-11-05T21:06:20.366Z,59.80
2018-11-05T21:08:49.079Z,59.80
2018-11-05T21:11:17.774Z,59.90
2018-11-05T21:13:46.492Z,59.90
2018-11-05T21:16:14.965Z,59.70
2018-11-05T21:18:44.761Z,59.90
2018-11-05T21:21:12.674Z,59.80
2018-11-05T21:23:41.594Z,59.80
2018-11-05T21:26:09.407Z,59.70
2018-11-05T21:28:37.271Z,59.80
2018-11-05T21:31:05.078Z,59.70
2018-11-05T21:33:33.135Z,59.80
2018-11-05T21:36:00.959Z,59.70
2018-11-05T21:38:28.788Z,59.70
2018-11-05T21:40:56.794Z,59.80
2018-11-05T21:43:25.595Z,59.70
2018-11-05T21:45:53.472Z,59.70
2018-11-05T21:48:21.306Z,59.40
2018-11-05T21:50:49.135Z,59.40
2018-11-05T21:53:17.054Z,59.30
2018-11-05T21:55:45.678Z,59.30
2018-11-05T21:58:14.712Z,59.40
2018-11-05T22:00:44.343Z,59.70
2018-11-05T22:03:16.346Z,59.30
2018-11-05T22:05:45.068Z,59.50
2018-11-05T22:08:14.131Z,59.50
2018-11-05T22:10:41.954Z,59.40
2018-11-05T22:13:09.921Z,59.40
2018-11-05T22:15:44.868Z,59.40
2018-11-05T22:18:13.371Z,59.20
2018-11-05T22:20:41.880Z,59.20
2018-11-05T22:23:09.727Z,59.40
2018-11-05T22:25:38.661Z,59.30
2018-11-05T22:28:08.008Z,59.20
2018-11-05T22:30:35.850Z,59.30
2018-11-05T22:33:03.933Z,59.30
2018-11-05T22:35:34.851Z,59.10
2018-11-05T22:38:02.776Z,59.10
2018-11-05T22:40:31.606Z,58.80
2018-11-05T22:42:59.446Z,58.50
2018-11-05T22:45:28.295Z,58.50
2018-11-05T22:47:56.113Z,58.60
2018-11-05T22:50:24.596Z,58.70
2018-11-05T22:52:52.408Z,58.70
2018-11-05T22:55:20.244Z,58.80
2018-11-05T22:57:48.051Z,58.70
2018-11-05T23:00:21.848Z,58.70
2018-11-05T23:02:55.277Z,58.70
2018-11-05T23:05:25.180Z,58.80
2018-11-05T23:07:54.109Z,58.90
2018-11-05T23:10:23.184Z,59.10
2018-11-05T23:12:51.860Z,59.30
2018-11-05T23:15:21.887Z,59.30
2018-11-05T23:17:49.866Z,59.30
2018-11-05T23:20:17.705Z,59.10
2018-11-05T23:22:45.531Z,59.40
2018-11-05T23:25:15.881Z,59.30
2018-11-05T23:27:44.374Z,59.30
2018-11-05T23:30:14.618Z,59.20
2018-11-05T23:32:45.933Z,59.10
2018-11-05T23:35:15.725Z,59.10
2018-11-05T23:37:45.162Z,59.30
2018-11-05T23:40:14.871Z,59.10
2018-11-05T23:42:44.551Z,59.20
2018-11-05T23:45:15.046Z,59.10
2018-11-05T23:47:42.828Z,59.20
2018-11-05T23:50:11.067Z,59.10
2018-11-05T23:52:38.878Z,59.10
2018-11-05T23:55:08.532Z,59.00
2018-11-05T23:57:36.416Z,58.90
